Highwood, Montana
Current Conditions -  °F | °C
As of 8:19 AM on Wednesday 26 Nov 2014 (Local Time) from KGFA Reporting Station
Light Snow Light Snow  
Wind Chill: 28°   Ceiling: 2200
Heat Index: 28°   Visibility: 1.6mi
Dew Point: 28°   Wind: 2mph
Humidity: 100%   Direction: 70°ENE
Pressure: 30.16"   Gusts: NA
Location:  47.58°N, 110.79°W
Report Text: KGFA 261519Z 07002KT 1 5/8SM -SN SCT003 OVC022 M02/M02 A3016 RMK AO2A CIG 003V022
Loading
Personal Weather Stations






























Interactive Weather Map New forecast layout! Learn more

10-Day Weather Forecast

Advertisements
Track Severe Weather on mobile